Time;durP1;ratioP1;P1;durP2;ratioP2;P2;SDS_P1;SDS_P2;PMS_P1;PMS_P2;Temp;Humidity;BMP_temperature;BMP_pressure;BME280_temperature;BME280_humidity;BME280_pressure;Samples;Min_cycle;Max_cycle;Signal;HPM_P1;HPM_P2
2023/12/06 00:00:15;;;;;;;;;11.67;8.67;;;;;10.50;66.22;100940.00;5040215;28;45627;-79
2023/12/06 00:02:40;;;;;;;;;8.00;8.00;;;;;10.50;66.07;100933.84;5021815;28;45571;-78
2023/12/06 00:05:10;;;;;;;;;9.67;9.67;;;;;10.50;66.55;100945.31;5031364;28;46029;-79
2023/12/06 00:07:35;;;;;;;;;10.00;8.67;;;;;10.50;66.61;100944.47;5040914;28;45433;-77
2023/12/06 00:10:01;;;;;;;;;12.33;11.67;;;;;10.50;66.46;100947.13;5040763;28;45189;-76
2023/12/06 00:12:27;;;;;;;;;18.33;13.33;;;;;10.08;66.35;100888.84;5046933;28;45013;-82
2023/12/06 00:14:52;;;;;;;;;14.33;12.00;;;;;10.47;66.22;100956.22;5041216;28;45584;-79
2023/12/06 00:17:17;;;;;;;;;8.67;8.67;;;;;10.50;66.25;100949.78;5044730;28;45422;-81
2023/12/06 00:19:43;;;;;;;;;9.00;7.00;;;;;10.51;66.35;100952.28;5051081;28;45064;-79
2023/12/06 00:22:08;;;;;;;;;10.33;10.33;;;;;10.51;66.38;100952.28;5030471;28;45251;-80
2023/12/06 00:24:33;;;;;;;;;7.33;7.33;;;;;10.21;66.38;100902.75;5043732;28;45449;-80
2023/12/06 00:26:58;;;;;;;;;9.00;7.00;;;;;10.33;66.17;100919.41;5050026;28;45315;-75
2023/12/06 00:29:24;;;;;;;;;11.33;10.00;;;;;10.55;65.81;100964.31;5061571;28;45328;-76
2023/12/06 00:31:49;;;;;;;;;9.33;9.33;;;;;10.47;66.00;100950.91;5055898;28;44828;-77
2023/12/06 00:34:14;;;;;;;;;9.33;8.00;;;;;10.56;66.00;100954.53;5048068;28;45445;-78
2023/12/06 00:36:40;;;;;;;;;9.33;8.00;;;;;10.56;65.88;100954.53;5042510;28;45460;-80
2023/12/06 00:39:05;;;;;;;;;7.33;7.00;;;;;10.07;65.35;100880.03;5044989;28;57649;-79
2023/12/06 00:41:30;;;;;;;;;10.67;10.00;;;;;10.46;65.82;100946.56;5046394;28;45275;-80
2023/12/06 00:43:56;;;;;;;;;8.67;7.00;;;;;10.55;65.85;100963.50;5047302;28;55690;-79
2023/12/06 00:46:21;;;;;;;;;8.33;8.33;;;;;10.52;65.51;100969.94;5031517;28;52981;-75
2023/12/06 00:48:46;;;;;;;;;7.00;6.00;;;;;10.46;65.66;100954.53;5049881;28;45354;-76
2023/12/06 00:51:12;;;;;;;;;10.33;9.33;;;;;10.49;65.53;100972.88;5049978;28;45364;-75
2023/12/06 00:53:37;;;;;;;;;7.00;6.00;;;;;10.09;65.05;100910.94;5029666;28;46227;-80
2023/12/06 00:56:10;;;;;;;;;7.00;6.00;;;;;10.49;65.22;100974.69;5046405;28;45424;-81
2023/12/06 00:58:35;;;;;;;;;8.67;8.67;;;;;10.45;65.60;100978.59;5048229;28;45413;-79
2023/12/06 01:01:00;;;;;;;;;8.00;7.00;;;;;10.45;64.85;100979.44;5048922;28;45463;-77
2023/12/06 01:03:26;;;;;;;;;10.33;9.00;;;;;10.45;65.28;100984.75;5027835;28;45975;-79
2023/12/06 01:05:54;;;;;;;;;7.00;7.00;;;;;10.38;65.24;100972.97;5046931;28;45883;-77
2023/12/06 01:08:19;;;;;;;;;8.00;7.00;;;;;9.67;65.47;100858.84;5041959;28;45527;-78
2023/12/06 01:10:44;;;;;;;;;7.33;6.67;;;;;10.29;65.51;100966.69;5042802;28;46111;-77
2023/12/06 01:13:10;;;;;;;;;8.67;8.33;;;;;10.34;65.37;100976.88;5047000;28;45598;-77
2023/12/06 01:15:35;;;;;;;;;6.00;6.00;;;;;10.33;65.31;100986.69;5047092;28;45629;-80
2023/12/06 01:18:00;;;;;;;;;8.00;8.00;;;;;10.39;65.73;100990.59;5047367;28;45091;-76
2023/12/06 01:20:25;;;;;;;;;9.00;7.00;;;;;10.34;65.81;100999.00;5049483;28;49917;-81
2023/12/06 01:22:51;;;;;;;;;4.00;4.00;;;;;10.21;65.68;100973.63;5042448;28;45354;-78
2023/12/06 01:25:16;;;;;;;;;11.67;8.33;;;;;10.27;65.45;100983.72;5042089;28;46427;-78
2023/12/06 01:27:41;;;;;;;;;7.00;7.00;;;;;10.24;65.73;100970.72;5045412;28;45312;-76
2023/12/06 01:30:07;;;;;;;;;9.00;7.33;;;;;10.27;65.76;100984.56;5040008;28;45562;-78
2023/12/06 01:32:32;;;;;;;;;7.67;6.67;;;;;10.34;65.74;100999.00;5044976;28;46159;-77
2023/12/06 01:34:58;;;;;;;;;7.00;6.00;;;;;10.18;65.63;100976.53;5046917;28;47466;-77
2023/12/06 01:37:23;;;;;;;;;8.33;8.33;;;;;9.92;65.70;100934.53;5027034;28;45503;-75
2023/12/06 01:39:48;;;;;;;;;7.00;7.00;;;;;9.83;65.72;100924.72;5022224;28;45599;-78
2023/12/06 01:42:13;;;;;;;;;7.00;5.00;;;;;10.34;65.54;101008.78;5026499;28;64642;-77
2023/12/06 01:44:39;;;;;;;;;11.33;9.00;;;;;10.24;65.57;101011.41;5042732;28;45289;-74
2023/12/06 01:47:05;;;;;;;;;8.00;7.67;;;;;10.30;65.74;101021.50;5040578;28;46518;-80
2023/12/06 01:49:32;;;;;;;;;6.67;6.67;;;;;10.29;65.53;101026.97;5026193;28;45479;-75
2023/12/06 01:51:57;;;;;;;;;7.33;7.00;;;;;10.25;65.55;101022.91;5042158;28;46518;-76
2023/12/06 01:54:22;;;;;;;;;10.00;6.33;;;;;10.21;65.61;101016.13;5044966;28;45088;-79
2023/12/06 01:56:48;;;;;;;;;6.00;6.00;;;;;10.26;65.90;101036.03;5044665;28;45378;-76
2023/12/06 01:59:13;;;;;;;;;7.00;5.67;;;;;10.18;65.56;101032.31;5043655;28;45274;-80
2023/12/06 02:01:40;;;;;;;;;7.00;7.00;;;;;10.14;65.40;101029.09;5027771;28;45053;-79
2023/12/06 02:04:05;;;;;;;;;5.67;4.33;;;;;9.88;65.54;100996.00;5026072;28;45458;-79
2023/12/06 02:06:31;;;;;;;;;5.00;5.00;;;;;10.07;66.00;101033.28;5046821;28;45337;-76
2023/12/06 02:08:58;;;;;;;;;7.67;7.67;;;;;10.10;66.15;101046.28;5042638;28;45321;-76
2023/12/06 02:11:24;;;;;;;;;5.00;5.00;;;;;10.10;65.75;101043.63;5045769;28;45440;-75
2023/12/06 02:13:49;;;;;;;;;6.00;6.00;;;;;9.77;65.90;100999.59;5044942;28;45770;-75
2023/12/06 02:16:16;;;;;;;;;8.00;6.33;;;;;10.02;65.98;101046.13;5043088;28;45508;-78
2023/12/06 02:18:42;;;;;;;;;7.00;7.00;;;;;9.93;66.41;101031.81;5043410;28;45485;-75
2023/12/06 02:21:08;;;;;;;;;5.00;5.00;;;;;10.07;66.02;101060.69;5047313;28;46468;-76
2023/12/06 02:23:37;;;;;;;;;6.00;6.00;;;;;9.65;66.10;100990.88;5041147;28;45338;-76
2023/12/06 02:26:02;;;;;;;;;7.33;5.67;;;;;10.09;66.33;101067.69;5039883;28;45529;-75
2023/12/06 02:28:28;;;;;;;;;9.33;7.33;;;;;10.09;66.31;101067.69;5040038;28;45543;-75
2023/12/06 02:30:53;;;;;;;;;10.00;7.33;;;;;9.92;66.38;101042.56;5042451;28;46084;-75
2023/12/06 02:33:18;;;;;;;;;8.33;7.00;;;;;10.09;66.29;101070.34;5043785;28;52535;-75
2023/12/06 02:35:50;;;;;;;;;6.67;5.67;;;;;10.07;66.31;101070.47;5042587;28;45440;-81
2023/12/06 02:38:19;;;;;;;;;7.00;6.33;;;;;9.92;65.91;101053.19;5040808;28;45447;-80
2023/12/06 02:40:47;;;;;;;;;8.00;7.00;;;;;9.98;66.53;101057.97;5048669;28;45132;-79
2023/12/06 02:43:14;;;;;;;;;7.67;6.33;;;;;9.88;66.20;101044.66;5044892;28;45212;-81
2023/12/06 02:45:39;;;;;;;;;8.33;8.00;;;;;10.07;66.45;101071.31;5049690;28;45016;-80
2023/12/06 02:48:05;;;;;;;;;8.67;8.00;;;;;10.08;65.98;101077.47;5051076;28;45300;-81
2023/12/06 02:50:30;;;;;;;;;6.00;5.67;;;;;10.08;66.17;101077.47;5024966;28;45519;-80
2023/12/06 02:52:56;;;;;;;;;7.33;6.00;;;;;9.84;65.81;101037.09;5029317;28;55312;-80
2023/12/06 02:55:21;;;;;;;;;8.33;7.00;;;;;10.08;66.10;101077.47;5028124;28;45144;-79
2023/12/06 02:57:46;;;;;;;;;10.67;8.33;;;;;10.07;65.82;101087.25;5046684;28;45580;-79
2023/12/06 03:00:12;;;;;;;;;7.00;7.00;;;;;9.95;65.81;101067.03;5040337;28;45493;-79
2023/12/06 03:02:37;;;;;;;;;11.00;7.67;;;;;10.09;66.07;101095.09;5043322;28;45378;-80
2023/12/06 03:05:02;;;;;;;;;11.00;9.33;;;;;9.98;65.85;101087.19;5045073;28;47236;-81
2023/12/06 03:07:28;;;;;;;;;6.33;6.00;;;;;9.99;65.75;101092.38;5046890;28;45458;-80
2023/12/06 03:09:53;;;;;;;;;8.00;8.00;;;;;9.57;65.48;101027.00;5041108;28;45336;-78
2023/12/06 03:12:18;;;;;;;;;4.00;2.67;;;;;9.83;65.75;101068.13;5043172;28;51674;-78
2023/12/06 03:14:44;;;;;;;;;7.33;7.33;;;;;9.91;65.86;101084.22;5048336;28;45340;-79
2023/12/06 03:17:09;;;;;;;;;11.00;10.00;;;;;9.84;65.87;101064.47;5026745;28;45364;-81
2023/12/06 03:19:34;;;;;;;;;9.00;7.67;;;;;9.95;66.10;101087.44;5028300;28;45545;-78
2023/12/06 03:22:00;;;;;;;;;10.00;9.00;;;;;9.68;66.05;101035.75;5040518;28;44917;-80
2023/12/06 03:24:25;;;;;;;;;9.00;8.00;;;;;9.70;66.10;101036.44;5040565;28;45308;-80
2023/12/06 03:26:51;;;;;;;;;9.00;7.33;;;;;10.02;65.90;101083.31;5040753;28;45715;-82
2023/12/06 03:29:16;;;;;;;;;8.00;7.67;;;;;9.96;65.77;101070.53;5046670;28;45430;-78
2023/12/06 03:31:41;;;;;;;;;8.67;8.00;;;;;9.82;65.50;101047.84;5024482;28;48675;-80
2023/12/06 03:34:08;;;;;;;;;8.33;6.33;;;;;9.93;65.58;101065.50;5041924;28;45597;-79
2023/12/06 03:36:33;;;;;;;;;9.00;8.33;;;;;10.00;65.50;101075.44;5055424;28;44890;-77
2023/12/06 03:38:58;;;;;;;;;12.33;10.00;;;;;9.99;65.40;101073.78;5060360;28;61459;-78
2023/12/06 03:41:24;;;;;;;;;11.67;9.00;;;;;9.97;65.17;101075.72;5046491;28;45353;-79
2023/12/06 03:43:49;;;;;;;;;8.67;8.67;;;;;9.96;65.27;101071.38;5049023;28;45322;-81
2023/12/06 03:46:15;;;;;;;;;4.67;3.00;;;;;9.58;65.49;101004.78;5045518;28;45264;-79
2023/12/06 03:48:40;;;;;;;;;10.00;10.00;;;;;9.99;65.24;101062.31;5018909;28;47219;-79
2023/12/06 03:51:05;;;;;;;;;8.33;7.67;;;;;9.97;65.50;101061.59;5028211;28;45342;-74
2023/12/06 03:53:31;;;;;;;;;8.00;8.00;;;;;9.85;65.33;101044.09;5027874;28;45569;-78
2023/12/06 03:55:56;;;;;;;;;7.33;7.33;;;;;9.93;65.47;101062.84;5027902;28;45664;-80
2023/12/06 03:58:23;;;;;;;;;8.00;7.00;;;;;9.91;65.37;101062.97;5026278;28;45240;-80
2023/12/06 04:00:48;;;;;;;;;10.00;8.67;;;;;9.59;65.26;101017.94;5022734;28;45249;-78
2023/12/06 04:03:14;;;;;;;;;7.00;7.00;;;;;9.88;64.92;101060.59;5026013;28;47154;-80
2023/12/06 04:05:42;;;;;;;;;7.33;6.33;;;;;9.83;65.12;101060.16;5016873;28;45292;-78
2023/12/06 04:08:09;;;;;;;;;9.33;8.33;;;;;9.74;65.26;101058.25;4999577;28;45682;-81
2023/12/06 04:10:34;;;;;;;;;8.33;8.33;;;;;9.65;65.20;101053.75;5007362;28;45776;-78
2023/12/06 04:12:59;;;;;;;;;9.67;8.33;;;;;9.43;65.06;101017.56;5022208;28;45126;-77
2023/12/06 04:15:25;;;;;;;;;8.67;6.67;;;;;9.60;65.19;101045.31;5025774;28;45821;-79
2023/12/06 04:17:50;;;;;;;;;4.33;4.33;;;;;9.53;65.27;101044.16;5021233;28;45939;-80
2023/12/06 04:20:15;;;;;;;;;7.33;7.33;;;;;9.44;64.93;101037.84;5024167;28;45454;-79
2023/12/06 04:22:41;;;;;;;;;7.00;6.00;;;;;9.15;64.90;100992.50;5023517;28;45722;-79
2023/12/06 04:25:06;;;;;;;;;7.00;6.00;;;;;9.66;65.32;101076.66;5019272;28;45549;-79
2023/12/06 04:27:32;;;;;;;;;7.67;5.67;;;;;9.69;65.26;101081.72;5022699;28;45460;-78
2023/12/06 04:29:57;;;;;;;;;7.00;5.00;;;;;9.71;65.36;101075.31;5021013;28;45280;-78
2023/12/06 04:32:22;;;;;;;;;9.00;7.00;;;;;9.75;65.16;101081.19;5020762;28;46246;-76
2023/12/06 04:34:56;;;;;;;;;9.00;6.33;;;;;9.52;64.96;101042.47;5025328;28;45563;-76
2023/12/06 04:37:22;;;;;;;;;7.33;6.00;;;;;9.75;65.05;101086.50;5003317;28;45486;-77
2023/12/06 04:39:47;;;;;;;;;9.00;8.33;;;;;9.65;64.93;101070.53;5004870;28;45217;-78
2023/12/06 04:42:14;;;;;;;;;11.00;8.00;;;;;9.77;64.77;101095.16;5020854;28;45864;-75
2023/12/06 04:44:39;;;;;;;;;5.33;5.33;;;;;9.69;64.57;101076.41;5027207;28;45371;-79
2023/12/06 04:47:05;;;;;;;;;8.00;7.67;;;;;9.59;65.00;101056.91;5026011;28;45477;-76
2023/12/06 04:49:30;;;;;;;;;8.33;6.67;;;;;9.71;65.18;101077.13;5045286;28;45286;-76
2023/12/06 04:51:56;;;;;;;;;10.67;10.67;;;;;9.66;64.61;101072.19;5043868;28;45350;-75
2023/12/06 04:54:23;;;;;;;;;9.33;8.00;;;;;9.57;64.73;101062.34;5041030;28;45895;-76
2023/12/06 04:56:49;;;;;;;;;7.00;7.00;;;;;9.79;64.83;101101.19;5041523;28;45964;-77
2023/12/06 04:59:15;;;;;;;;;7.00;7.00;;;;;9.71;64.64;101088.56;5048386;28;45176;-76
2023/12/06 05:01:40;;;;;;;;;10.67;9.00;;;;;9.31;65.07;101030.06;5046895;28;45359;-75
2023/12/06 05:04:06;;;;;;;;;9.33;7.00;;;;;9.74;64.80;101112.22;5046808;28;45319;-77
2023/12/06 05:06:31;;;;;;;;;7.67;6.67;;;;;9.34;64.63;101048.38;5046333;28;45606;-77
2023/12/06 05:08:56;;;;;;;;;9.33;8.33;;;;;9.68;64.84;101114.53;5044124;28;45215;-79
2023/12/06 05:11:22;;;;;;;;;7.67;6.33;;;;;9.63;64.97;101119.41;5042184;28;55537;-77
2023/12/06 05:13:49;;;;;;;;;9.33;7.67;;;;;9.56;65.06;101118.22;5046850;28;45183;-77
2023/12/06 05:16:15;;;;;;;;;7.67;6.00;;;;;9.54;65.42;101125.47;5044267;28;45862;-78
2023/12/06 05:18:40;;;;;;;;;11.00;9.00;;;;;9.45;65.32;101116.47;5041827;28;45436;-79
2023/12/06 05:21:06;;;;;;;;;7.00;6.00;;;;;9.45;65.41;101122.63;5045053;28;45482;-81
2023/12/06 05:23:31;;;;;;;;;8.00;6.33;;;;;9.42;65.42;101128.19;5041321;28;46180;-82
2023/12/06 05:25:56;;;;;;;;;11.00;8.00;;;;;9.29;65.69;101116.06;5044440;28;45516;-74
2023/12/06 05:28:22;;;;;;;;;11.00;10.33;;;;;9.34;65.27;101125.31;5045783;28;45422;-77
2023/12/06 05:30:47;;;;;;;;;8.33;6.33;;;;;8.99;65.60;101074.31;5044525;28;45132;-74
2023/12/06 05:33:12;;;;;;;;;7.67;7.67;;;;;9.29;65.56;101138.13;5044513;28;45395;-76
2023/12/06 05:35:38;;;;;;;;;6.67;6.00;;;;;9.14;65.55;101119.00;5043568;28;45617;-76
2023/12/06 05:38:03;;;;;;;;;9.33;7.00;;;;;9.12;66.07;101133.34;5043271;28;45280;-79
2023/12/06 05:40:29;;;;;;;;;6.67;6.67;;;;;9.06;66.49;101136.50;5047170;28;45091;-78
2023/12/06 05:42:54;;;;;;;;;7.33;5.67;;;;;9.14;66.29;101152.63;5045187;28;45241;-77
2023/12/06 05:45:19;;;;;;;;;6.67;6.00;;;;;9.17;66.42;101152.38;5051174;28;61404;-76
2023/12/06 05:47:45;;;;;;;;;8.00;7.00;;;;;9.02;66.67;101124.47;5041831;28;45404;-75
2023/12/06 05:50:11;;;;;;;;;10.67;8.67;;;;;9.21;66.13;101151.19;5044631;28;45472;-75
2023/12/06 05:52:37;;;;;;;;;8.00;6.00;;;;;9.15;66.42;101149.00;5041282;28;45243;-80
2023/12/06 05:55:05;;;;;;;;;6.33;6.33;;;;;9.17;66.16;101149.72;5022185;28;46033;-76
2023/12/06 05:57:31;;;;;;;;;9.33;7.33;;;;;9.06;66.60;101142.66;5041261;28;45353;-77
2023/12/06 05:59:58;;;;;;;;;6.00;6.00;;;;;9.23;66.36;101161.66;5043860;28;45369;-79
2023/12/06 06:02:23;;;;;;;;;8.00;5.00;;;;;9.21;66.04;101161.81;5046081;28;45069;-80
2023/12/06 06:04:48;;;;;;;;;8.33;7.33;;;;;9.01;66.17;101141.31;5048800;28;45296;-79
2023/12/06 06:07:14;;;;;;;;;7.00;6.00;;;;;9.19;66.49;101168.16;5049047;28;45567;-80
2023/12/06 06:09:39;;;;;;;;;5.33;4.00;;;;;9.20;66.20;101169.84;5042535;28;45527;-80
2023/12/06 06:12:07;;;;;;;;;8.00;6.67;;;;;9.02;66.79;101143.03;5047712;28;45425;-82
2023/12/06 06:14:33;;;;;;;;;9.00;7.00;;;;;9.03;66.44;101142.91;5046047;28;45806;-80
2023/12/06 06:16:59;;;;;;;;;12.00;9.00;;;;;9.16;66.30;101163.97;5043759;28;45254;-79
2023/12/06 06:19:24;;;;;;;;;7.67;6.67;;;;;8.91;66.41;101127.97;5046151;28;45379;-79
2023/12/06 06:21:49;;;;;;;;;7.67;6.67;;;;;9.04;66.63;101154.34;5030286;28;45440;-81
2023/12/06 06:24:15;;;;;;;;;7.00;7.00;;;;;8.81;66.40;101117.28;5025003;28;46786;-79
2023/12/06 06:26:40;;;;;;;;;11.00;9.67;;;;;9.07;66.51;101165.56;5046788;28;50900;-79
2023/12/06 06:29:07;;;;;;;;;11.00;11.00;;;;;9.08;66.23;101161.94;5047978;28;45141;-80
2023/12/06 06:31:33;;;;;;;;;8.00;8.00;;;;;9.07;66.56;101160.25;5043621;28;45474;-79
2023/12/06 06:34:02;;;;;;;;;8.33;7.00;;;;;8.98;66.49;101139.75;5041056;28;45475;-81
2023/12/06 06:36:28;;;;;;;;;9.33;9.33;;;;;8.91;66.33;101132.44;5041344;28;45350;-79
2023/12/06 06:38:55;;;;;;;;;8.00;7.00;;;;;9.23;66.00;101185.53;5044785;28;45351;-80
2023/12/06 06:41:21;;;;;;;;;6.33;5.33;;;;;9.07;66.19;101159.41;5045090;28;45366;-82
2023/12/06 06:43:46;;;;;;;;;8.33;6.00;;;;;9.26;66.10;101187.94;5060008;28;46283;-82
2023/12/06 06:46:12;;;;;;;;;6.00;6.00;;;;;9.29;66.24;101200.97;5062073;28;45170;-80
2023/12/06 06:48:37;;;;;;;;;6.67;5.67;;;;;9.30;65.93;101203.47;5043982;28;45495;-79
2023/12/06 06:51:03;;;;;;;;;7.67;6.00;;;;;9.33;65.96;101208.53;5047900;28;45429;-77
2023/12/06 06:53:28;;;;;;;;;6.67;6.67;;;;;9.32;66.02;101206.84;5042589;28;45498;-83
2023/12/06 06:55:54;;;;;;;;;7.00;7.00;;;;;9.31;65.75;101221.09;5039678;28;61247;-78
2023/12/06 06:58:19;;;;;;;;;9.67;8.00;;;;;9.29;65.97;101228.34;5046807;28;45248;-79
2023/12/06 07:00:44;;;;;;;;;9.67;7.00;;;;;9.19;65.84;101210.63;5045779;28;45446;-79
2023/12/06 07:03:11;;;;;;;;;14.67;12.33;;;;;9.23;66.16;101217.38;5044866;28;46377;-79
2023/12/06 07:05:37;;;;;;;;;6.67;5.67;;;;;9.22;66.29;101216.53;5038269;28;45729;-82
2023/12/06 07:08:02;;;;;;;;;8.67;7.33;;;;;9.20;65.75;101218.44;5047636;28;45282;-80
2023/12/06 07:10:28;;;;;;;;;7.33;6.00;;;;;9.16;65.98;101227.63;5042207;28;45209;-76
2023/12/06 07:12:53;;;;;;;;;9.00;6.33;;;;;9.13;66.34;101225.22;5023354;28;45528;-83
2023/12/06 07:15:19;;;;;;;;;10.33;8.33;;;;;9.11;65.90;101235.13;5029816;28;45225;-78
2023/12/06 07:17:45;;;;;;;;;7.00;6.00;;;;;8.86;66.61;101199.09;5025499;28;45302;-78
2023/12/06 07:20:17;;;;;;;;;10.33;8.67;;;;;8.94;66.09;101217.03;5041157;28;45385;-79
2023/12/06 07:22:42;;;;;;;;;4.67;4.67;;;;;9.07;66.19;101257.56;5039538;28;45526;-80
2023/12/06 07:25:08;;;;;;;;;15.67;8.00;;;;;8.90;66.27;101231.50;5021432;28;45389;-80
2023/12/06 07:27:33;;;;;;;;;8.33;7.00;;;;;9.01;66.37;101261.53;5047373;28;45386;-81
2023/12/06 07:29:59;;;;;;;;;8.00;6.00;;;;;8.49;66.52;101174.66;5048202;28;45090;-81
2023/12/06 07:32:25;;;;;;;;;6.67;6.67;;;;;8.93;66.11;101247.19;5041382;28;45284;-82
2023/12/06 07:34:50;;;;;;;;;8.00;8.00;;;;;8.67;66.17;101210.31;5041771;28;45363;-81
2023/12/06 07:37:16;;;;;;;;;8.67;7.33;;;;;8.99;66.56;101262.59;5042883;28;44860;-81
2023/12/06 07:39:41;;;;;;;;;4.67;4.00;;;;;8.97;66.44;101265.38;5026461;28;45269;-82
2023/12/06 07:42:07;;;;;;;;;7.33;7.33;;;;;8.99;66.50;101274.03;5041531;28;45903;-82
2023/12/06 07:44:32;;;;;;;;;7.33;6.00;;;;;8.62;66.75;101204.53;5041044;28;45485;-81
2023/12/06 07:46:58;;;;;;;;;5.00;5.00;;;;;8.93;66.54;101258.63;5042332;28;45693;-82
2023/12/06 07:49:23;;;;;;;;;9.33;9.00;;;;;8.71;66.57;101221.50;5037312;28;45763;-83
2023/12/06 07:51:50;;;;;;;;;5.67;5.67;;;;;9.04;66.59;101277.22;5037733;28;45810;-82
2023/12/06 07:54:16;;;;;;;;;11.33;9.00;;;;;8.89;66.59;101238.63;5043272;28;45321;-81
2023/12/06 07:56:44;;;;;;;;;8.00;7.00;;;;;8.80;66.37;101221.63;5041752;28;45267;-78
2023/12/06 07:59:10;;;;;;;;;13.67;10.00;;;;;8.60;66.39;101182.59;5040720;28;45532;-80
2023/12/06 08:01:36;;;;;;;;;8.00;8.00;;;;;8.95;66.19;101247.91;5042432;28;45392;-79
2023/12/06 08:04:02;;;;;;;;;10.33;9.00;;;;;8.73;65.99;101223.06;5021864;28;45321;-78
2023/12/06 08:06:27;;;;;;;;;9.00;7.67;;;;;8.82;66.46;101242.75;5039460;28;45370;-78
2023/12/06 08:08:53;;;;;;;;;12.67;8.67;;;;;9.09;66.65;101300.72;5017432;28;45662;-83
2023/12/06 08:11:19;;;;;;;;;10.67;7.67;;;;;8.72;65.92;101224.03;5035736;28;45547;-80
2023/12/06 08:13:46;;;;;;;;;9.33;9.00;;;;;8.83;66.13;101242.63;5035867;28;45469;-80
2023/12/06 08:16:11;;;;;;;;;9.33;6.67;;;;;9.04;66.21;101268.41;5035343;28;45634;-79
2023/12/06 08:18:36;;;;;;;;;11.33;9.00;;;;;9.14;65.97;101282.63;5035658;28;45366;-81
2023/12/06 08:21:04;;;;;;;;;7.33;7.33;;;;;7.85;65.97;101078.97;5034901;28;49984;-82
2023/12/06 08:23:29;;;;;;;;;11.00;8.33;;;;;9.18;66.09;101299.97;5036529;28;45415;-80
2023/12/06 08:25:54;;;;;;;;;11.00;9.33;;;;;9.11;66.27;101288.16;5023071;28;45304;-79
2023/12/06 08:28:20;;;;;;;;;9.00;9.00;;;;;9.25;65.88;101311.81;5034259;28;45438;-80
2023/12/06 08:30:46;;;;;;;;;8.67;8.67;;;;;9.34;66.24;101311.06;5034566;28;45463;-78
2023/12/06 08:33:13;;;;;;;;;8.00;8.00;;;;;9.29;65.97;101275.25;5037055;28;45512;-80
2023/12/06 08:35:40;;;;;;;;;9.00;7.33;;;;;9.54;65.51;101296.19;5039831;28;45334;-78
2023/12/06 08:38:05;;;;;;;;;9.33;9.00;;;;;9.75;65.33;101306.88;5023323;28;45557;-78
2023/12/06 08:40:31;;;;;;;;;10.67;10.67;;;;;9.65;64.81;101277.59;5039771;28;45398;-80
2023/12/06 08:42:57;;;;;;;;;15.00;10.33;;;;;9.28;64.71;101205.44;5040571;28;45500;-79
2023/12/06 08:45:22;;;;;;;;;11.67;10.67;;;;;10.03;64.60;101295.69;5023957;28;45447;-78
2023/12/06 08:47:48;;;;;;;;;12.33;10.33;;;;;10.23;64.34;101304.69;5040542;28;45460;-80
2023/12/06 08:50:14;;;;;;;;;12.67;11.67;;;;;10.22;63.93;101296.84;5041753;28;45640;-80
2023/12/06 08:52:44;;;;;;;;;11.00;10.00;;;;;10.34;63.76;101295.81;5040822;28;45280;-78
2023/12/06 08:55:10;;;;;;;;;12.00;12.00;;;;;10.13;63.46;101239.97;5038920;28;45459;-79
2023/12/06 08:57:35;;;;;;;;;10.00;9.00;;;;;9.93;62.92;101204.44;5038501;28;45861;-79
2023/12/06 09:00:01;;;;;;;;;10.00;9.00;;;;;10.73;62.35;101318.19;5038361;28;46225;-77
2023/12/06 09:02:26;;;;;;;;;11.00;8.67;;;;;10.79;62.37;101319.47;5038887;28;45746;-78
2023/12/06 09:04:53;;;;;;;;;9.67;8.33;;;;;10.60;62.32;101285.63;5045054;28;45463;-80
2023/12/06 09:07:18;;;;;;;;;9.00;7.67;;;;;10.88;62.01;101311.56;5046619;28;45438;-80
2023/12/06 09:09:46;;;;;;;;;11.67;8.33;;;;;10.95;62.35;101320.69;5042259;28;45316;-79
2023/12/06 09:12:12;;;;;;;;;10.67;9.00;;;;;11.00;61.38;101325.59;5020953;28;45556;-80
2023/12/06 09:14:37;;;;;;;;;7.67;7.67;;;;;11.07;61.54;101317.94;5040073;28;45372;-78
2023/12/06 09:17:03;;;;;;;;;15.33;11.00;;;;;10.85;61.33;101271.09;5021436;28;45470;-78
2023/12/06 09:19:30;;;;;;;;;10.00;9.00;;;;;10.72;61.44;101249.16;5019999;28;46861;-77
2023/12/06 09:21:55;;;;;;;;;14.00;13.67;;;;;11.06;60.72;101292.31;5017236;28;45814;-79
2023/12/06 09:24:21;;;;;;;;;10.00;9.00;;;;;11.22;60.86;101319.28;5018968;28;45465;-80
2023/12/06 09:26:46;;;;;;;;;11.00;9.33;;;;;11.13;60.38;101301.44;5036391;28;45097;-81
2023/12/06 09:29:12;;;;;;;;;10.00;9.33;;;;;11.24;60.42;101320.00;5038522;28;46441;-81
2023/12/06 09:31:38;;;;;;;;;11.00;11.00;;;;;11.24;60.41;101326.16;5039209;28;45568;-80
2023/12/06 09:34:05;;;;;;;;;12.67;10.33;;;;;11.02;59.98;101285.59;5037419;28;45332;-79
2023/12/06 09:36:30;;;;;;;;;15.00;11.33;;;;;11.19;60.67;101320.38;5039591;28;45390;-81
2023/12/06 09:38:57;;;;;;;;;11.00;10.00;;;;;11.17;60.63;101322.31;5038580;28;45278;-79
2023/12/06 09:41:26;;;;;;;;;10.33;9.00;;;;;11.15;60.86;101323.44;5016890;28;45533;-81
2023/12/06 09:43:52;;;;;;;;;14.33;11.67;;;;;10.91;60.21;101292.66;5018614;28;45395;-80
2023/12/06 09:46:18;;;;;;;;;14.67;13.67;;;;;10.91;60.25;101339.72;5029631;28;45486;-80
2023/12/06 09:48:43;;;;;;;;;15.00;12.67;;;;;10.78;60.40;101341.72;5039574;28;45980;-81
2023/12/06 09:51:09;;;;;;;;;10.67;9.67;;;;;10.73;60.54;101322.66;5047478;28;45279;-81
2023/12/06 09:53:38;;;;;;;;;9.33;8.67;;;;;10.71;60.20;101330.78;5047319;28;45448;-84
2023/12/06 09:56:03;;;;;;;;;15.00;13.00;;;;;10.42;60.04;101292.53;5045156;28;45383;-82
2023/12/06 09:58:29;;;;;;;;;11.00;10.00;;;;;10.49;60.61;101315.78;5021840;28;47504;-81
2023/12/06 10:00:55;;;;;;;;;15.67;11.33;;;;;10.34;60.15;101306.44;5016280;28;45473;-82
2023/12/06 10:03:23;;;;;;;;;15.67;14.00;;;;;10.21;60.57;101295.13;5018723;28;46053;-81
2023/12/06 10:05:56;;;;;;;;;15.33;12.67;;;;;10.29;60.96;101313.97;5034960;28;45738;-84
2023/12/06 10:08:22;;;;;;;;;10.00;10.00;;;;;10.45;61.17;101340.13;5037734;28;46031;-80
2023/12/06 10:10:48;;;;;;;;;16.33;14.33;;;;;10.44;61.17;101344.59;5038217;28;45431;-81
2023/12/06 10:13:13;;;;;;;;;14.00;11.33;;;;;10.47;61.13;101348.78;5038099;28;45203;-78
2023/12/06 10:15:39;;;;;;;;;14.67;12.33;;;;;9.78;60.89;101250.88;5036875;28;46039;-80
2023/12/06 10:18:05;;;;;;;;;13.33;12.00;;;;;10.32;61.26;101340.28;5020291;28;47241;-82
2023/12/06 10:20:30;;;;;;;;;10.00;9.00;;;;;9.12;60.79;101158.06;5020275;28;45310;-82
2023/12/06 10:22:56;;;;;;;;;13.33;12.33;;;;;10.31;61.40;101350.06;5038593;28;45558;-82
2023/12/06 10:25:22;;;;;;;;;10.00;10.00;;;;;10.01;61.16;101294.97;5038252;28;45280;-81
2023/12/06 10:27:47;;;;;;;;;14.67;12.00;;;;;10.33;61.15;101336.66;5042454;28;46195;-81
2023/12/06 10:30:22;;;;;;;;;15.00;11.67;;;;;9.36;61.05;101164.97;5042051;28;45501;-82
2023/12/06 10:32:50;;;;;;;;;15.33;13.67;;;;;10.18;60.94;101312.16;5042333;28;45279;-80
2023/12/06 10:35:17;;;;;;;;;16.00;12.33;;;;;9.37;60.43;101166.66;5024191;28;45555;-81
2023/12/06 10:37:42;;;;;;;;;20.67;15.00;;;;;10.48;61.05;101339.84;5041295;28;45535;-80
2023/12/06 10:40:10;;;;;;;;;14.00;13.00;;;;;10.51;60.78;101348.41;5038371;28;45373;-82
2023/12/06 10:42:37;;;;;;;;;11.00;11.00;;;;;9.76;60.22;101258.13;5039581;28;45283;-82
2023/12/06 10:45:04;;;;;;;;;13.67;13.67;;;;;10.36;61.12;101331.06;5039954;28;45678;-83
2023/12/06 10:47:31;;;;;;;;;14.00;13.00;;;;;10.15;60.83;101317.72;5016190;28;47257;-83
2023/12/06 10:49:57;;;;;;;;;19.33;16.33;;;;;10.19;60.85;101344.88;5016391;28;45567;-80
2023/12/06 10:52:23;;;;;;;;;15.33;14.33;;;;;10.07;61.14;101329.00;5016652;28;45485;-82
2023/12/06 10:54:49;;;;;;;;;14.00;13.00;;;;;10.05;61.20;101336.25;5019067;28;45654;-81
2023/12/06 10:57:15;;;;;;;;;16.67;14.00;;;;;9.70;61.71;101263.94;5018866;28;45446;-81
2023/12/06 10:59:43;;;;;;;;;15.33;15.33;;;;;10.21;61.68;101337.66;5019702;28;45387;-82
2023/12/06 11:02:10;;;;;;;;;23.00;17.00;;;;;9.60;61.32;101218.69;5019394;28;45707;-80
2023/12/06 11:04:41;;;;;;;;;12.33;11.67;;;;;10.25;60.76;101320.50;5016248;28;45645;-79
2023/12/06 11:07:19;;;;;;;;;16.00;12.67;;;;;10.47;60.64;101338.16;5033795;28;48588;-83
2023/12/06 11:09:57;;;;;;;;;18.67;15.67;;;;;10.18;60.20;101274.13;5019778;28;45548;-78
2023/12/06 11:12:40;;;;;;;;;14.33;13.00;;;;;10.61;60.73;101336.03;5017083;28;45416;-79
2023/12/06 11:15:42;;;;;;;;;22.67;16.33;;;;;10.74;60.34;101337.63;5009162;28;45240;-81
2023/12/06 11:18:18;;;;;;;;;14.67;14.00;;;;;10.67;60.11;101302.75;4996057;28;45595;-84